Time;durP1;ratioP1;P1;durP2;ratioP2;P2;SDS_P1;SDS_P2;PMS_P1;PMS_P2;Temp;Humidity;BMP_temperature;BMP_pressure;BME280_temperature;BME280_humidity;BME280_pressure;Samples;Min_cycle;Max_cycle;Signal;HPM_P1;HPM_P2
2021/04/01 00:02:13;;;;;;;15.93;7.78;;;15.30;56.30;;;;;;5054270;28;20112;-71
2021/04/01 00:04:39;;;;;;;12.02;8.48;;;15.20;55.90;;;;;;5054255;28;20481;-71
2021/04/01 00:07:05;;;;;;;12.80;7.78;;;15.20;55.70;;;;;;5053596;28;20036;-72
2021/04/01 00:09:30;;;;;;;12.85;7.45;;;15.20;56.10;;;;;;5054183;28;20036;-71
2021/04/01 00:11:56;;;;;;;18.52;8.10;;;15.20;55.80;;;;;;5054164;28;20408;-71
2021/04/01 00:14:24;;;;;;;15.30;7.55;;;15.10;56.30;;;;;;5054055;28;20051;-71
2021/04/01 00:16:52;;;;;;;19.02;7.70;;;15.10;56.40;;;;;;5054302;28;20053;-71
2021/04/01 00:19:18;;;;;;;12.02;8.15;;;15.00;56.80;;;;;;5053609;28;20029;-71
2021/04/01 00:21:43;;;;;;;14.45;8.50;;;15.00;57.30;;;;;;5053552;28;20545;-73
2021/04/01 00:24:09;;;;;;;18.30;8.43;;;15.00;56.90;;;;;;5054177;28;20112;-71
2021/04/01 00:26:35;;;;;;;20.33;9.73;;;14.90;56.70;;;;;;5053752;28;20037;-72
2021/04/01 00:29:01;;;;;;;16.92;8.95;;;15.00;57.00;;;;;;5052190;28;20103;-71
2021/04/01 00:31:26;;;;;;;15.35;8.65;;;14.90;57.10;;;;;;5054435;28;20028;-71
2021/04/01 00:33:52;;;;;;;14.55;8.77;;;14.90;57.00;;;;;;5053729;28;20025;-71
2021/04/01 00:36:18;;;;;;;15.25;8.95;;;14.90;57.60;;;;;;5053896;28;20465;-71
2021/04/01 00:38:43;;;;;;;17.17;9.20;;;14.90;57.10;;;;;;5054069;28;20053;-71
2021/04/01 00:41:09;;;;;;;21.17;10.00;;;15.00;56.60;;;;;;5053107;28;20111;-71
2021/04/01 00:43:35;;;;;;;17.50;9.48;;;14.90;56.10;;;;;;5053775;28;20075;-71
2021/04/01 00:46:01;;;;;;;15.77;9.23;;;14.90;56.00;;;;;;5053702;28;20425;-71
2021/04/01 00:48:26;;;;;;;24.15;8.88;;;14.80;57.00;;;;;;5053348;28;20056;-70
2021/04/01 00:50:52;;;;;;;15.30;9.27;;;14.80;56.60;;;;;;5053468;28;20021;-72
2021/04/01 00:53:18;;;;;;;12.70;7.63;;;14.80;57.10;;;;;;5053234;28;20021;-71
2021/04/01 00:55:43;;;;;;;17.25;6.85;;;14.80;56.70;;;;;;5053423;28;20028;-71
2021/04/01 00:58:09;;;;;;;10.07;6.45;;;14.70;56.00;;;;;;5052153;28;20069;-71
2021/04/01 01:00:36;;;;;;;13.50;6.07;;;14.70;56.90;;;;;;5050268;28;20477;-71
2021/04/01 01:03:02;;;;;;;22.83;7.07;;;14.60;56.60;;;;;;5050347;28;20083;-71
2021/04/01 01:05:30;;;;;;;12.82;6.43;;;14.60;57.30;;;;;;5052079;28;20025;-70
2021/04/01 01:07:56;;;;;;;11.70;6.22;;;14.60;56.70;;;;;;5052861;28;20381;-73
2021/04/01 01:10:26;;;;;;;10.55;5.90;;;14.60;56.80;;;;;;5052044;28;20017;-71
2021/04/01 01:12:53;;;;;;;13.13;5.95;;;14.60;56.30;;;;;;5053751;28;20045;-71
2021/04/01 01:15:20;;;;;;;9.90;5.50;;;14.60;55.90;;;;;;5052890;28;20488;-71
2021/04/01 01:17:48;;;;;;;13.10;6.10;;;14.50;56.30;;;;;;5052959;28;20376;-71
2021/04/01 01:20:14;;;;;;;7.93;5.82;;;14.50;56.00;;;;;;5052556;28;20032;-71
2021/04/01 01:22:42;;;;;;;13.57;6.20;;;14.50;56.40;;;;;;5053122;28;20428;-71
2021/04/01 01:25:10;;;;;;;10.30;6.65;;;14.50;56.40;;;;;;5052554;28;20021;-71
2021/04/01 01:27:39;;;;;;;15.57;6.00;;;14.50;56.60;;;;;;5052236;28;20120;-72
2021/04/01 01:30:17;;;;;;;10.52;6.22;;;14.50;56.50;;;;;;5053068;28;20024;-71
2021/04/01 01:32:46;;;;;;;10.23;5.45;;;14.40;56.80;;;;;;5052147;28;20536;-71
2021/04/01 01:35:18;;;;;;;19.55;6.43;;;14.40;57.00;;;;;;5051901;28;20021;-71
2021/04/01 01:37:55;;;;;;;14.27;6.55;;;14.40;56.30;;;;;;5052017;28;20388;-71
2021/04/01 01:40:22;;;;;;;12.75;6.05;;;14.40;56.90;;;;;;5052203;28;20473;-71
2021/04/01 01:42:50;;;;;;;11.57;6.70;;;14.40;57.10;;;;;;5052207;28;20474;-71
2021/04/01 01:45:17;;;;;;;15.63;6.50;;;14.30;57.80;;;;;;5052981;28;20017;-72
2021/04/01 01:47:43;;;;;;;9.35;5.90;;;14.30;57.00;;;;;;5051978;28;20025;-71
2021/04/01 01:50:14;;;;;;;14.63;6.05;;;14.30;56.60;;;;;;5051752;28;20021;-71
2021/04/01 01:52:41;;;;;;;15.23;6.57;;;14.30;56.40;;;;;;5051925;28;20032;-71
2021/04/01 01:55:08;;;;;;;10.52;6.53;;;14.30;56.60;;;;;;5052463;28;20485;-71
2021/04/01 01:57:38;;;;;;;16.10;7.07;;;14.30;56.70;;;;;;5051730;28;20025;-71
2021/04/01 02:00:11;;;;;;;16.45;7.32;;;14.20;56.50;;;;;;5051830;28;20538;-71
2021/04/01 02:02:37;;;;;;;15.82;8.00;;;14.20;56.60;;;;;;5051856;28;20423;-71
2021/04/01 02:05:05;;;;;;;13.55;7.75;;;14.20;56.50;;;;;;5051854;28;20124;-71
2021/04/01 02:07:31;;;;;;;18.20;7.80;;;14.10;56.40;;;;;;5051594;28;20052;-71
2021/04/01 02:09:57;;;;;;;13.65;7.88;;;14.10;56.60;;;;;;5051182;28;20029;-70
2021/04/01 02:12:22;;;;;;;17.10;8.05;;;14.10;56.80;;;;;;5052120;28;20033;-73
2021/04/01 02:14:48;;;;;;;17.38;8.70;;;14.00;57.00;;;;;;5051367;28;20051;-70
2021/04/01 02:17:20;;;;;;;14.65;7.15;;;14.00;57.10;;;;;;5051747;28;20363;-71
2021/04/01 02:19:46;;;;;;;14.77;7.43;;;13.90;57.30;;;;;;5051694;28;20078;-70
2021/04/01 02:22:12;;;;;;;13.93;7.00;;;13.90;57.70;;;;;;5051753;28;20112;-71
2021/04/01 02:24:37;;;;;;;9.77;6.80;;;13.80;57.60;;;;;;5051200;28;20159;-70
2021/04/01 02:27:03;;;;;;;17.55;7.38;;;13.80;57.40;;;;;;5051765;28;20061;-71
2021/04/01 02:29:29;;;;;;;25.90;8.02;;;13.90;57.10;;;;;;5051690;28;20626;-71
2021/04/01 02:31:55;;;;;;;19.95;7.70;;;13.90;57.30;;;;;;5051655;28;20025;-70
2021/04/01 02:34:21;;;;;;;16.10;7.45;;;13.80;57.40;;;;;;5051314;28;20024;-71
2021/04/01 02:36:46;;;;;;;16.77;7.82;;;13.80;57.00;;;;;;5052989;28;20021;-71
2021/04/01 02:39:12;;;;;;;17.67;7.55;;;13.80;57.30;;;;;;5051604;28;20024;-71
2021/04/01 02:41:38;;;;;;;14.43;7.47;;;13.80;57.20;;;;;;5051025;28;20052;-71
2021/04/01 02:44:04;;;;;;;17.10;7.22;;;13.70;57.10;;;;;;5051043;28;20034;-71
2021/04/01 02:46:30;;;;;;;13.65;7.05;;;13.70;57.10;;;;;;5051368;28;20021;-71
2021/04/01 02:48:56;;;;;;;15.75;7.18;;;13.60;56.90;;;;;;5051185;28;20098;-71
2021/04/01 02:51:21;;;;;;;14.23;7.30;;;13.60;57.00;;;;;;5051414;28;20052;-71
2021/04/01 02:53:47;;;;;;;17.20;7.03;;;13.60;57.30;;;;;;5051217;28;20051;-71
2021/04/01 02:56:13;;;;;;;14.13;7.07;;;13.60;57.40;;;;;;5051329;28;20017;-71
2021/04/01 02:58:39;;;;;;;13.75;7.65;;;13.50;57.20;;;;;;5051158;28;20423;-71
2021/04/01 03:01:06;;;;;;;16.70;7.45;;;13.50;57.50;;;;;;5051096;28;20111;-71
2021/04/01 03:03:37;;;;;;;15.00;6.88;;;13.40;57.90;;;;;;5050847;28;20065;-71
2021/04/01 03:06:03;;;;;;;12.20;7.15;;;13.40;58.00;;;;;;5051082;28;20108;-71
2021/04/01 03:08:28;;;;;;;13.75;6.35;;;13.30;58.00;;;;;;5050644;28;20115;-71
2021/04/01 03:10:54;;;;;;;12.45;6.85;;;13.30;58.20;;;;;;5050940;28;20025;-71
2021/04/01 03:13:20;;;;;;;18.80;7.40;;;13.30;58.30;;;;;;5050432;28;20079;-71
2021/04/01 03:15:48;;;;;;;12.55;7.13;;;13.20;58.30;;;;;;5050646;28;20028;-72
2021/04/01 03:18:14;;;;;;;12.35;7.00;;;13.20;58.90;;;;;;5050754;28;20029;-72
2021/04/01 03:20:40;;;;;;;13.65;7.80;;;13.20;58.40;;;;;;5051085;28;20139;-71
2021/04/01 03:23:05;;;;;;;14.45;7.72;;;13.10;58.80;;;;;;5051223;28;20025;-71
2021/04/01 03:25:31;;;;;;;15.50;7.40;;;13.20;58.70;;;;;;5050968;28;20032;-71
2021/04/01 03:27:57;;;;;;;17.17;7.40;;;13.20;59.00;;;;;;5050575;28;20626;-71
2021/04/01 03:30:23;;;;;;;13.25;7.95;;;13.20;58.90;;;;;;5050944;28;20032;-71
2021/04/01 03:32:49;;;;;;;19.83;7.88;;;13.10;59.20;;;;;;5051171;28;20036;-71
2021/04/01 03:35:24;;;;;;;24.30;7.88;;;13.10;59.20;;;;;;5054752;28;20017;-71
2021/04/01 03:37:52;;;;;;;21.33;9.15;;;13.10;59.20;;;;;;5054657;28;20025;-72
2021/04/01 03:40:18;;;;;;;13.85;7.50;;;13.10;58.90;;;;;;5054616;28;20014;-70
2021/04/01 03:42:44;;;;;;;16.52;7.35;;;13.10;59.10;;;;;;5054352;28;20047;-71
2021/04/01 03:45:11;;;;;;;25.63;8.25;;;13.10;59.10;;;;;;5054988;28;20021;-71
2021/04/01 03:47:38;;;;;;;20.42;8.95;;;13.10;59.30;;;;;;5054425;28;20515;-71
2021/04/01 03:50:06;;;;;;;19.95;7.57;;;13.00;59.50;;;;;;5054937;28;20009;-71
2021/04/01 03:52:31;;;;;;;17.02;8.43;;;13.00;60.10;;;;;;5054973;28;20033;-71
2021/04/01 03:55:06;;;;;;;17.48;8.20;;;13.00;60.20;;;;;;5054480;28;20036;-72
2021/04/01 03:57:32;;;;;;;15.70;8.35;;;13.00;60.00;;;;;;5054416;28;20105;-71
2021/04/01 04:00:14;;;;;;;26.50;9.07;;;12.90;60.30;;;;;;5054081;28;20460;-71
2021/04/01 04:10:28;;;;;;;32.35;7.95;;;13.00;59.50;;;;;;5055286;28;20039;-70
2021/04/01 04:13:29;;;;;;;14.88;8.07;;;12.90;59.30;;;;;;5053825;28;20401;-71
2021/04/01 04:15:45;;;;;;;13.90;8.07;;;12.90;59.40;;;;;;5052120;28;20033;-71
2021/04/01 04:18:11;;;;;;;17.65;7.80;;;12.90;59.30;;;;;;5054037;28;20029;-71
2021/04/01 04:20:37;;;;;;;19.92;8.55;;;12.90;59.90;;;;;;5054053;28;20104;-70
2021/04/01 04:23:03;;;;;;;13.98;7.68;;;12.80;59.40;;;;;;5053953;28;20025;-70
2021/04/01 04:25:29;;;;;;;17.38;7.53;;;12.80;59.40;;;;;;5053476;28;20028;-71
2021/04/01 04:30:22;;;;;;;19.77;8.18;;;12.80;59.80;;;;;;5053849;28;20083;-71
2021/04/01 04:32:48;;;;;;;24.38;7.68;;;12.80;60.90;;;;;;5053662;28;20087;-71
2021/04/01 04:35:13;;;;;;;25.30;8.07;;;12.80;59.90;;;;;;5053352;28;20029;-71
2021/04/01 04:37:39;;;;;;;15.60;7.68;;;12.70;60.00;;;;;;5053400;28;20025;-71
2021/04/01 04:40:06;;;;;;;22.23;7.60;;;12.70;60.00;;;;;;5053957;28;20029;-70
2021/04/01 04:42:32;;;;;;;23.65;8.18;;;12.70;60.20;;;;;;5053204;28;20062;-71
2021/04/01 04:44:58;;;;;;;26.10;8.30;;;12.70;60.10;;;;;;5053635;28;20064;-71
2021/04/01 04:47:24;;;;;;;21.52;8.15;;;12.70;60.30;;;;;;5053741;28;20037;-70
2021/04/01 04:49:50;;;;;;;29.85;7.88;;;12.70;60.40;;;;;;5052744;28;20032;-71
2021/04/01 04:52:15;;;;;;;40.00;8.73;;;12.70;60.30;;;;;;5053330;28;20112;-70
2021/04/01 04:54:42;;;;;;;33.22;8.70;;;12.70;60.30;;;;;;5053267;28;20369;-71
2021/04/01 04:57:33;;;;;;;35.40;8.90;;;12.60;60.30;;;;;;5053259;28;20021;-70
2021/04/01 05:05:18;;;;;;;46.92;10.23;;;12.60;60.00;;;;;;5053013;28;20039;-71
2021/04/01 05:07:44;;;;;;;39.40;8.88;;;12.60;60.50;;;;;;5053006;28;20448;-71
2021/04/01 05:10:10;;;;;;;45.70;8.73;;;12.50;61.30;;;;;;5052637;28;20029;-71
2021/04/01 05:12:35;;;;;;;46.15;9.48;;;12.50;61.70;;;;;;5052820;28;20052;-71
2021/04/01 05:15:01;;;;;;;57.05;9.65;;;12.50;61.40;;;;;;5052672;28;20075;-70
2021/04/01 05:17:27;;;;;;;58.25;10.10;;;12.50;61.00;;;;;;5053135;28;20465;-71
2021/04/01 05:19:59;;;;;;;37.72;8.90;;;12.50;61.00;;;;;;5052576;28;20079;-71
2021/04/01 05:22:36;;;;;;;40.00;8.65;;;12.50;61.40;;;;;;5052671;28;20048;-70
2021/04/01 05:25:03;;;;;;;50.45;9.63;;;12.50;61.10;;;;;;5052851;28;20049;-71
2021/04/01 05:27:38;;;;;;;37.88;9.02;;;12.50;61.00;;;;;;5052447;28;20112;-71
2021/04/01 05:30:05;;;;;;;58.45;10.90;;;12.50;61.30;;;;;;5051646;28;20531;-70
2021/04/01 05:32:38;;;;;;;54.30;9.23;;;12.50;61.30;;;;;;5052348;28;20025;-71
2021/04/01 05:35:07;;;;;;;52.05;9.23;;;12.60;61.20;;;;;;5051099;28;20031;-71
2021/04/01 05:37:33;;;;;;;56.20;10.18;;;12.50;61.20;;;;;;5052644;28;20036;-70
2021/04/01 05:39:59;;;;;;;44.40;9.73;;;12.60;61.50;;;;;;5052513;28;20033;-71
2021/04/01 05:42:30;;;;;;;31.88;9.55;;;12.60;61.50;;;;;;5052628;28;20025;-71
2021/04/01 05:45:14;;;;;;;36.45;8.77;;;12.60;61.40;;;;;;5052276;28;20028;-71
2021/04/01 05:47:51;;;;;;;41.97;8.88;;;12.60;61.10;;;;;;5050900;28;20043;-71
2021/04/01 06:00:47;;;;;;;44.40;10.13;;;12.70;61.90;;;;;;5053606;28;20420;-70
2021/04/01 06:06:12;;;;;;;53.05;12.95;;;12.90;61.20;;;;;;5055293;28;20031;-71
2021/04/01 06:08:48;;;;;;;66.82;15.30;;;12.90;60.90;;;;;;5063216;28;20029;-70
2021/04/01 06:11:13;;;;;;;87.78;17.92;;;12.90;61.00;;;;;;5058565;28;20017;-71
2021/04/01 06:13:57;;;;;;;69.82;17.60;;;12.90;60.70;;;;;;5062477;28;20390;-71
2021/04/01 06:16:24;;;;;;;60.35;19.30;;;13.00;61.50;;;;;;5063475;28;20071;-70
2021/04/01 06:18:54;;;;;;;60.90;17.63;;;13.10;61.70;;;;;;5061819;28;20393;-70
2021/04/01 06:21:25;;;;;;;51.40;17.17;;;13.20;61.30;;;;;;5056086;28;20035;-71
2021/04/01 06:24:13;;;;;;;64.57;17.98;;;13.30;60.80;;;;;;5051388;28;20079;-70
2021/04/01 06:26:48;;;;;;;61.88;17.80;;;13.30;61.30;;;;;;5052640;28;20065;-70
2021/04/01 06:29:18;;;;;;;68.88;20.52;;;13.30;62.00;;;;;;5052954;28;20029;-69
2021/04/01 06:31:45;;;;;;;67.93;18.35;;;13.30;62.00;;;;;;5051402;28;20029;-70
2021/04/01 06:34:11;;;;;;;56.05;17.60;;;13.40;61.80;;;;;;5051665;28;20477;-70
2021/04/01 06:36:54;;;;;;;52.63;15.07;;;13.50;61.10;;;;;;5052470;28;20470;-70
2021/04/01 06:39:21;;;;;;;40.33;14.40;;;13.60;60.40;;;;;;5052687;28;20062;-70
2021/04/01 06:41:48;;;;;;;38.10;13.25;;;13.70;59.90;;;;;;5052329;28;20032;-71
2021/04/01 06:44:27;;;;;;;51.10;12.07;;;13.80;60.30;;;;;;5052983;28;20025;-71
2021/04/01 06:47:03;;;;;;;37.95;10.60;;;13.90;59.80;;;;;;5052687;28;20439;-70
2021/04/01 06:49:49;;;;;;;27.17;8.85;;;13.90;59.40;;;;;;5052654;28;20453;-70
2021/04/01 06:52:20;;;;;;;25.50;8.55;;;14.00;58.90;;;;;;5052798;28;20036;-71
2021/04/01 06:55:44;;;;;;;24.65;8.40;;;14.10;58.90;;;;;;5052877;28;20440;-70
2021/04/01 07:00:33;;;;;;;40.20;9.38;;;14.30;58.60;;;;;;5052122;28;20032;-69
2021/04/01 07:03:27;;;;;;;30.13;9.50;;;14.40;59.00;;;;;;5052281;28;20397;-69
2021/04/01 07:05:54;;;;;;;34.13;8.50;;;14.40;59.00;;;;;;5051140;28;20032;-70
2021/04/01 07:11:42;;;;;;;38.45;9.93;;;14.50;58.80;;;;;;5076726;28;20029;-68
2021/04/01 07:14:16;;;;;;;48.30;9.25;;;14.60;58.90;;;;;;5076331;28;20044;-69
2021/04/01 07:47:37;;;;;;;25.50;9.77;;;15.80;58.10;;;;;;5054532;28;20171;-70
2021/04/01 07:50:09;;;;;;;38.90;9.27;;;16.00;58.40;;;;;;5054742;28;20481;-71
2021/04/01 07:52:36;;;;;;;30.83;9.82;;;16.00;58.20;;;;;;5055827;28;20469;-70
2021/04/01 08:05:57;;;;;;;25.20;9.10;;;16.50;57.10;;;;;;5055389;28;20033;-70
2021/04/01 08:08:25;;;;;;;31.10;9.13;;;16.60;57.00;;;;;;5055034;28;20037;-70
2021/04/01 08:10:56;;;;;;;26.23;9.48;;;16.70;57.20;;;;;;5055034;28;20096;-69
2021/04/01 08:13:31;;;;;;;31.90;10.10;;;16.70;57.20;;;;;;5054644;28;20094;-70
2021/04/01 08:16:04;;;;;;;34.72;9.52;;;16.80;56.90;;;;;;5055464;28;20378;-70
2021/04/01 08:18:35;;;;;;;27.77;9.93;;;17.00;56.70;;;;;;5055144;28;20053;-69
2021/04/01 08:21:05;;;;;;;27.50;9.77;;;17.10;56.40;;;;;;5055259;28;20119;-72
2021/04/01 08:23:34;;;;;;;37.53;9.35;;;17.20;56.50;;;;;;5055699;28;20431;-71
2021/04/01 08:36:01;;;;;;;25.60;9.63;;;17.60;53.90;;;;;;5055209;28;20029;-70
2021/04/01 08:38:28;;;;;;;24.40;9.07;;;17.70;54.50;;;;;;5055267;28;20033;-70
2021/04/01 08:40:58;;;;;;;25.38;9.45;;;17.80;53.80;;;;;;5055137;28;20366;-70
2021/04/01 08:43:36;;;;;;;22.70;9.25;;;17.90;52.70;;;;;;5055309;28;20544;-70
2021/04/01 08:46:30;;;;;;;23.75;9.05;;;18.00;51.90;;;;;;5055117;28;20428;-69
2021/04/01 08:49:30;;;;;;;21.73;8.43;;;18.10;51.70;;;;;;5028765;28;20051;-70
2021/04/01 08:52:17;;;;;;;34.47;8.73;;;18.30;51.50;;;;;;5054953;28;20029;-70
2021/04/01 08:54:50;;;;;;;20.38;8.45;;;18.40;48.20;;;;;;5055233;28;20029;-71
2021/04/01 08:57:37;;;;;;;22.70;7.82;;;18.40;48.30;;;;;;5053262;28;20081;-71
2021/04/01 09:00:13;;;;;;;16.50;7.85;;;18.50;47.60;;;;;;5054916;28;20135;-71
2021/04/01 09:02:45;;;;;;;17.55;8.27;;;18.60;49.90;;;;;;5055185;28;20361;-69
2021/04/01 09:05:11;;;;;;;23.45;8.80;;;18.70;49.30;;;;;;5055268;28;20033;-70
2021/04/01 09:07:50;;;;;;;17.70;7.05;;;18.80;49.40;;;;;;5054742;28;20064;-71
2021/04/01 09:10:22;;;;;;;16.85;6.80;;;18.90;48.50;;;;;;5054727;28;20017;-71
2021/04/01 09:17:48;;;;;;;19.73;7.43;;;19.20;47.60;;;;;;5054573;28;20310;-73
2021/04/01 09:20:14;;;;;;;14.50;7.10;;;19.30;47.50;;;;;;5054427;28;20048;-72
2021/04/01 09:22:49;;;;;;;17.55;7.78;;;19.40;47.80;;;;;;5054806;28;20040;-72
2021/04/01 09:25:15;;;;;;;18.75;7.80;;;19.50;47.10;;;;;;5054722;28;20535;-72
2021/04/01 09:27:59;;;;;;;20.42;7.85;;;19.60;46.50;;;;;;5054082;28;20028;-72
2021/04/01 09:30:25;;;;;;;18.67;7.13;;;19.70;44.60;;;;;;5053118;28;20025;-77
2021/04/01 09:32:53;;;;;;;20.85;8.27;;;19.80;45.00;;;;;;5053454;28;20169;-72
2021/04/01 09:35:20;;;;;;;29.85;8.85;;;19.90;45.60;;;;;;5054182;28;20021;-76
2021/04/01 09:37:54;;;;;;;27.10;8.10;;;20.00;43.30;;;;;;5054188;28;20512;-73
2021/04/01 09:40:33;;;;;;;23.92;9.13;;;20.10;44.80;;;;;;5053584;28;20021;-73
2021/04/01 09:43:22;;;;;;;29.08;8.10;;;20.20;42.30;;;;;;5053540;28;20048;-73
2021/04/01 09:45:50;;;;;;;23.33;9.25;;;20.20;44.00;;;;;;5050282;28;20033;-73
2021/04/01 09:48:21;;;;;;;25.17;9.43;;;20.30;44.70;;;;;;5050314;28;20444;-73
2021/04/01 09:50:47;;;;;;;21.45;8.75;;;20.40;44.80;;;;;;5052397;28;20029;-73
2021/04/01 09:53:21;;;;;;;24.83;8.88;;;20.40;43.80;;;;;;5052929;28;20351;-73
2021/04/01 09:55:52;;;;;;;25.15;10.30;;;20.50;44.30;;;;;;5054174;28;20116;-73
2021/04/01 09:58:25;;;;;;;33.65;10.93;;;20.70;43.30;;;;;;5054145;28;20128;-73
2021/04/01 10:03:22;;;;;;;29.20;12.18;;;20.80;41.60;;;;;;5053682;28;20031;-73
2021/04/01 10:05:49;;;;;;;25.52;10.88;;;20.90;43.10;;;;;;5053956;28;20025;-73
2021/04/01 10:08:37;;;;;;;29.23;12.25;;;20.90;41.60;;;;;;5054024;28;20140;-77
2021/04/01 10:11:21;;;;;;;23.25;10.02;;;21.00;41.60;;;;;;5053863;28;20100;-73
2021/04/01 10:13:47;;;;;;;23.95;10.75;;;21.10;41.60;;;;;;5053604;28;20045;-73
2021/04/01 10:16:23;;;;;;;26.20;12.07;;;21.20;42.50;;;;;;5053855;28;20040;-73
2021/04/01 10:18:51;;;;;;;29.48;12.00;;;21.30;40.90;;;;;;5053683;28;20064;-73
2021/04/01 10:21:17;;;;;;;34.33;12.75;;;21.40;41.40;;;;;;5053782;28;20033;-76
2021/04/01 10:23:48;;;;;;;27.48;11.82;;;21.40;42.70;;;;;;5053687;28;20466;-76
2021/04/01 10:26:16;;;;;;;30.60;13.20;;;21.60;42.80;;;;;;5053947;28;20108;-73
2021/04/01 10:29:07;;;;;;;32.03;13.85;;;21.60;41.20;;;;;;5053055;28;20045;-73
2021/04/01 10:31:44;;;;;;;31.05;14.32;;;21.70;41.10;;;;;;5049985;28;20021;-74
2021/04/01 10:34:31;;;;;;;32.88;13.98;;;21.80;41.80;;;;;;5050305;28;20047;-74
2021/04/01 10:37:04;;;;;;;31.42;14.05;;;21.90;40.10;;;;;;5052594;28;20056;-73
2021/04/01 10:39:34;;;;;;;38.63;16.75;;;22.00;40.20;;;;;;5053044;28;20100;-74
2021/04/01 10:42:03;;;;;;;37.63;15.27;;;22.00;39.60;;;;;;5053058;28;20029;-75
2021/04/01 10:44:30;;;;;;;34.65;15.68;;;22.10;41.50;;;;;;5053055;28;20036;-74
2021/04/01 10:46:59;;;;;;;34.20;17.67;;;22.10;42.00;;;;;;5053391;28;20032;-75
2021/04/01 10:49:31;;;;;;;44.33;18.40;;;22.10;40.00;;;;;;5053001;28;20028;-73
2021/04/01 10:52:16;;;;;;;35.67;18.67;;;22.10;39.60;;;;;;5052952;28;20024;-75
2021/04/01 10:54:44;;;;;;;38.20;19.55;;;22.10;40.80;;;;;;5052615;28;20029;-75
2021/04/01 10:57:31;;;;;;;40.90;19.15;;;22.10;39.30;;;;;;5053056;28;20032;-74
2021/04/01 11:00:04;;;;;;;39.22;19.50;;;22.10;38.90;;;;;;5053049;28;20064;-75
2021/04/01 11:02:35;;;;;;;42.17;19.40;;;22.10;39.30;;;;;;5052826;28;20017;-75
2021/04/01 11:05:20;;;;;;;40.03;19.48;;;22.10;39.30;;;;;;5053078;28;20385;-75
2021/04/01 11:07:50;;;;;;;44.05;18.65;;;22.10;39.00;;;;;;5052751;28;20072;-75
2021/04/01 11:10:24;;;;;;;43.40;19.67;;;22.20;38.70;;;;;;5053123;28;20355;-74
2021/04/01 11:12:53;;;;;;;43.83;20.35;;;22.20;38.80;;;;;;5052704;28;20136;-75
2021/04/01 11:15:41;;;;;;;42.30;20.35;;;22.20;38.70;;;;;;5052956;28;20040;-74
2021/04/01 11:18:14;;;;;;;47.85;20.83;;;22.30;37.70;;;;;;5052925;28;20029;-75
2021/04/01 11:20:42;;;;;;;40.25;19.77;;;22.30;38.10;;;;;;5052714;28;20053;-74
2021/04/01 11:23:17;;;;;;;42.40;20.70;;;22.30;38.80;;;;;;5053129;28;20363;-74
2021/04/01 11:25:52;;;;;;;43.83;20.80;;;22.40;39.00;;;;;;5052728;28;20521;-76
2021/04/01 11:28:18;;;;;;;47.35;21.40;;;22.50;37.90;;;;;;5056896;28;20035;-73
2021/04/01 11:30:49;;;;;;;39.78;20.25;;;22.50;38.60;;;;;;5062124;28;20047;-74
2021/04/01 11:33:21;;;;;;;35.53;18.07;;;22.50;38.90;;;;;;5071247;28;20086;-73
2021/04/01 11:35:48;;;;;;;32.85;16.23;;;22.50;37.80;;;;;;5072421;28;20273;-73
2021/04/01 11:38:24;;;;;;;40.08;20.15;;;22.50;37.10;;;;;;5072082;28;20396;-73
2021/04/01 11:40:55;;;;;;;34.28;17.92;;;22.60;36.50;;;;;;5072218;28;20024;-73
2021/04/01 11:43:26;;;;;;;34.05;17.75;;;22.50;37.50;;;;;;5072206;28;20017;-74
2021/04/01 11:45:52;;;;;;;28.30;16.25;;;22.50;38.10;;;;;;5072559;28;20025;-73
2021/04/01 11:48:18;;;;;;;29.13;16.15;;;22.60;36.60;;;;;;5072553;28;20380;-73
2021/04/01 11:50:45;;;;;;;33.35;17.92;;;22.50;37.20;;;;;;5072433;28;20020;-73
2021/04/01 11:53:11;;;;;;;35.58;16.65;;;22.50;37.50;;;;;;5072481;28;20124;-75
2021/04/01 11:55:47;;;;;;;35.20;18.80;;;22.60;39.70;;;;;;5075366;28;20122;-72
2021/04/01 11:58:13;;;;;;;36.20;18.50;;;22.60;38.30;;;;;;5076465;28;20111;-74
2021/04/01 12:00:38;;;;;;;37.10;18.17;;;22.70;37.10;;;;;;5076386;28;20028;-80
2021/04/01 12:03:08;;;;;;;36.40;19.33;;;22.70;37.70;;;;;;5076197;28;20511;-73
2021/04/01 12:05:39;;;;;;;35.05;18.48;;;22.80;37.20;;;;;;5075831;28;20063;-72
2021/04/01 12:08:05;;;;;;;35.13;17.67;;;22.80;37.20;;;;;;5075452;28;20435;-72
2021/04/01 12:10:31;;;;;;;37.10;20.33;;;22.80;38.90;;;;;;5075741;28;20017;-72
2021/04/01 12:12:57;;;;;;;39.97;21.13;;;22.90;38.80;;;;;;5075441;28;20059;-73
2021/04/01 12:15:36;;;;;;;39.65;20.23;;;23.00;39.40;;;;;;5075540;28;20020;-72
2021/04/01 12:18:04;;;;;;;36.30;19.70;;;23.00;38.30;;;;;;5075603;28;20032;-73
2021/04/01 12:20:31;;;;;;;36.72;19.83;;;23.10;38.50;;;;;;5075765;28;20023;-72
2021/04/01 12:22:57;;;;;;;35.28;20.30;;;23.10;37.70;;;;;;5075721;28;20025;-72
2021/04/01 12:25:25;;;;;;;37.08;19.58;;;23.10;37.80;;;;;;5075673;28;20043;-73
2021/04/01 12:27:54;;;;;;;36.88;19.92;;;23.20;37.70;;;;;;5074579;28;20131;-73
2021/04/01 12:30:37;;;;;;;39.40;18.67;;;23.20;37.00;;;;;;5073610;28;20024;-73
2021/04/01 12:33:19;;;;;;;32.28;19.60;;;23.20;39.30;;;;;;5073236;28;20157;-75
2021/04/01 12:35:57;;;;;;;38.70;20.88;;;23.20;38.20;;;;;;5074676;28;20419;-74
2021/04/01 12:38:37;;;;;;;34.60;20.98;;;23.30;38.60;;;;;;5072575;28;20055;-73
2021/04/01 12:41:06;;;;;;;38.55;21.13;;;23.40;38.50;;;;;;5054172;28;20021;-73
2021/04/01 12:43:39;;;;;;;40.13;19.90;;;23.40;39.10;;;;;;5055191;28;20028;-74
2021/04/01 12:46:05;;;;;;;41.15;18.90;;;23.40;37.90;;;;;;5054807;28;20036;-76
2021/04/01 12:48:39;;;;;;;37.15;20.98;;;23.40;38.90;;;;;;5057708;28;20032;-75
2021/04/01 12:51:05;;;;;;;37.60;20.20;;;23.50;37.60;;;;;;5064074;28;20028;-76
2021/04/01 12:53:32;;;;;;;43.88;20.75;;;23.50;38.70;;;;;;5053791;28;20116;-73
2021/04/01 12:56:06;;;;;;;35.35;20.08;;;23.50;38.20;;;;;;5054876;28;20049;-73
2021/04/01 12:58:39;;;;;;;38.60;20.63;;;23.50;38.40;;;;;;5055080;28;20374;-73
2021/04/01 13:01:30;;;;;;;34.63;20.52;;;23.50;37.70;;;;;;5052314;28;20113;-74
2021/04/01 13:03:58;;;;;;;40.90;20.75;;;23.50;37.30;;;;;;5053561;28;20033;-73
2021/04/01 13:06:45;;;;;;;37.50;20.23;;;23.60;37.80;;;;;;5052889;28;20107;-76
2021/04/01 13:11:37;;;;;;;36.67;20.52;;;23.60;37.30;;;;;;5052588;28;20531;-74
2021/04/01 13:14:03;;;;;;;32.75;19.15;;;23.60;37.70;;;;;;5053173;28;20072;-73
2021/04/01 13:16:29;;;;;;;37.42;19.42;;;23.60;38.40;;;;;;5053379;28;20037;-73
2021/04/01 13:18:55;;;;;;;32.78;17.73;;;23.60;37.70;;;;;;5053629;28;20093;-74
2021/04/01 13:21:39;;;;;;;39.90;19.85;;;23.60;38.20;;;;;;5053472;28;20027;-73
2021/04/01 13:26:36;;;;;;;35.72;18.80;;;23.60;37.40;;;;;;5053323;28;20450;-73
2021/04/01 13:29:06;;;;;;;28.02;15.57;;;23.60;36.60;;;;;;5053219;28;20060;-72
2021/04/01 13:39:19;;;;;;;29.75;15.48;;;23.60;36.70;;;;;;5053627;28;20412;-73
2021/04/01 13:42:32;;;;;;;32.25;16.40;;;23.60;36.70;;;;;;5053269;28;20100;-72
2021/04/01 13:44:34;;;;;;;30.13;14.60;;;23.60;36.70;;;;;;5046085;28;20452;-72
2021/04/01 13:47:01;;;;;;;27.33;15.40;;;23.60;34.50;;;;;;5054015;28;20611;-75
2021/04/01 13:49:29;;;;;;;26.52;13.80;;;23.60;35.50;;;;;;5052845;28;20035;-74
2021/04/01 13:52:12;;;;;;;25.77;13.45;;;23.60;35.70;;;;;;5053151;28;20036;-74
2021/04/01 13:54:52;;;;;;;30.85;12.95;;;23.60;36.20;;;;;;5052077;28;20464;-74
2021/04/01 14:11:16;;;;;;;16.08;9.20;;;23.60;34.00;;;;;;5052653;28;20028;-71
2021/04/01 14:13:43;;;;;;;18.98;9.38;;;23.60;34.90;;;;;;5052436;28;20056;-73
2021/04/01 14:16:09;;;;;;;18.85;9.02;;;23.60;34.30;;;;;;5052480;28;20225;-72
2021/04/01 14:18:36;;;;;;;24.58;9.80;;;23.60;35.60;;;;;;5051896;28;20021;-74
2021/04/01 14:21:04;;;;;;;21.88;11.70;;;23.60;35.10;;;;;;5053137;28;20033;-75
2021/04/01 14:23:31;;;;;;;24.02;11.48;;;23.60;34.60;;;;;;5053373;28;20521;-74
2021/04/01 14:26:01;;;;;;;25.25;11.98;;;23.60;36.00;;;;;;5053665;28;20028;-74
2021/04/01 14:28:27;;;;;;;18.48;8.82;;;23.60;36.90;;;;;;5053070;28;20041;-74
2021/04/01 14:30:52;;;;;;;29.38;10.35;;;23.60;37.30;;;;;;5052972;28;20032;-73
2021/04/01 14:33:22;;;;;;;20.27;9.90;;;23.60;36.30;;;;;;5053360;28;20465;-73
2021/04/01 14:35:48;;;;;;;25.15;10.85;;;23.60;35.80;;;;;;5053183;28;20021;-70
2021/04/01 14:38:15;;;;;;;20.42;9.98;;;23.60;36.10;;;;;;5052927;28;20063;-71
2021/04/01 14:43:17;;;;;;;21.27;9.20;;;23.60;36.00;;;;;;5053017;28;20065;-72
2021/04/01 14:45:43;;;;;;;25.02;9.63;;;23.50;36.20;;;;;;5052728;28;20056;-72
2021/04/01 14:48:10;;;;;;;27.08;9.63;;;23.50;36.00;;;;;;5052821;28;20075;-71
2021/04/01 14:50:37;;;;;;;24.65;9.73;;;23.40;35.20;;;;;;5051711;28;20017;-72
2021/04/01 14:53:06;;;;;;;24.83;10.65;;;23.40;35.90;;;;;;5052497;28;20052;-73